createdAt,value
2024-01-28T00:02:31.691Z,90.61
2024-01-28T00:05:35.315Z,90.55
2024-01-28T00:08:38.301Z,90.59
2024-01-28T00:11:41.255Z,90.76
2024-01-28T00:14:44.359Z,90.67
2024-01-28T00:17:47.255Z,90.71
2024-01-28T00:20:50.246Z,90.70
2024-01-28T00:23:53.648Z,90.89
2024-01-28T00:26:56.571Z,91.10
2024-01-28T00:29:59.541Z,91.01
2024-01-28T00:33:02.708Z,91.08
2024-01-28T00:36:06.290Z,91.28
2024-01-28T00:39:09.189Z,91.38
2024-01-28T00:42:12.037Z,91.29
2024-01-28T00:45:15.047Z,91.45
2024-01-28T00:48:18.063Z,91.38
2024-01-28T00:51:21.061Z,91.54
2024-01-28T00:54:25.260Z,91.44
2024-01-28T00:57:28.292Z,91.56
2024-01-28T01:00:32.471Z,91.60
2024-01-28T01:03:35.632Z,91.61
2024-01-28T01:06:41.011Z,91.85
2024-01-28T01:09:44.118Z,91.86
2024-01-28T01:12:47.171Z,91.80
2024-01-28T01:15:50.055Z,91.78
2024-01-28T01:18:53.158Z,91.67
2024-01-28T01:21:58.225Z,91.93
2024-01-28T01:25:01.496Z,91.99
2024-01-28T01:28:04.933Z,92.09
2024-01-28T01:31:07.889Z,92.22
2024-01-28T01:34:10.995Z,92.04
2024-01-28T01:37:13.969Z,91.97
2024-01-28T01:40:17.080Z,92.03
2024-01-28T01:43:21.220Z,92.06
2024-01-28T01:46:24.028Z,92.11
2024-01-28T01:49:28.462Z,92.17
2024-01-28T01:52:31.923Z,92.24
2024-01-28T01:55:36.299Z,92.44
2024-01-28T01:58:39.617Z,92.34
2024-01-28T02:01:43.779Z,92.20
2024-01-28T02:04:46.709Z,92.24
2024-01-28T02:07:49.661Z,92.13
2024-01-28T02:10:52.526Z,92.36
2024-01-28T02:13:55.384Z,92.46
2024-01-28T02:17:02.588Z,92.73
2024-01-28T02:20:05.762Z,92.84
2024-01-28T02:23:09.160Z,92.88
2024-01-28T02:26:12.570Z,92.82
2024-01-28T02:29:15.529Z,92.77
2024-01-28T02:32:19.730Z,92.72
2024-01-28T02:35:22.615Z,92.75
2024-01-28T02:38:25.481Z,92.76
2024-01-28T02:41:28.332Z,92.62
2024-01-28T02:44:31.369Z,92.86
2024-01-28T02:47:34.195Z,92.63
2024-01-28T02:50:37.023Z,92.41
2024-01-28T02:53:39.961Z,92.53
2024-01-28T02:56:43.544Z,92.54
2024-01-28T02:59:46.395Z,92.59
2024-01-28T03:02:49.894Z,92.57
2024-01-28T03:05:53.179Z,92.80
2024-01-28T03:08:55.955Z,92.78
2024-01-28T03:11:59.120Z,92.72
2024-01-28T03:15:02.203Z,92.70
2024-01-28T03:18:05.346Z,92.87
2024-01-28T03:21:08.567Z,92.85
2024-01-28T03:24:11.534Z,93.00
2024-01-28T03:27:14.655Z,93.26
2024-01-28T03:30:18.681Z,93.29
2024-01-28T03:33:21.926Z,93.18
2024-01-28T03:36:25.691Z,93.24
2024-01-28T03:39:28.675Z,93.42
2024-01-28T03:42:32.109Z,93.54
2024-01-28T03:45:35.122Z,93.74
2024-01-28T03:48:38.110Z,93.69
2024-01-28T03:51:41.038Z,93.57
2024-01-28T03:54:44.047Z,93.52
2024-01-28T03:57:47.532Z,93.43
2024-01-28T04:00:50.627Z,93.53
2024-01-28T04:03:58.683Z,93.39
2024-01-28T04:07:02.816Z,93.44
2024-01-28T04:10:06.776Z,93.49
2024-01-28T04:13:09.614Z,93.53
2024-01-28T04:16:12.457Z,93.56
2024-01-28T04:19:15.360Z,93.59
2024-01-28T04:22:18.776Z,93.62
2024-01-28T04:25:21.703Z,93.77
2024-01-28T04:28:26.562Z,93.97
2024-01-28T04:31:30.820Z,93.98
2024-01-28T04:34:35.201Z,93.92
2024-01-28T04:37:38.201Z,93.98
2024-01-28T04:40:41.558Z,94.18
2024-01-28T04:43:44.515Z,94.17
2024-01-28T04:46:47.702Z,94.28
2024-01-28T04:49:50.784Z,94.16
2024-01-28T04:52:53.880Z,94.30
2024-01-28T04:55:56.678Z,94.43
2024-01-28T04:58:59.787Z,94.45
2024-01-28T05:02:03.296Z,94.53
2024-01-28T05:05:06.538Z,94.67
2024-01-28T05:08:10.341Z,94.66
2024-01-28T05:11:13.219Z,94.64
2024-01-28T05:14:16.050Z,94.58
2024-01-28T05:17:19.124Z,94.62
2024-01-28T05:20:23.013Z,94.52
2024-01-28T05:23:25.952Z,94.63
2024-01-28T05:26:28.753Z,94.61
2024-01-28T05:29:31.585Z,94.51
2024-01-28T05:32:34.552Z,94.68
2024-01-28T05:35:38.205Z,94.75
2024-01-28T05:38:41.651Z,94.85
2024-01-28T05:41:46.704Z,94.97
2024-01-28T05:44:51.043Z,94.97
2024-01-28T05:47:54.121Z,95.06
2024-01-28T05:50:57.230Z,94.90
2024-01-28T05:54:00.096Z,95.01
2024-01-28T05:57:03.065Z,95.11
2024-01-28T06:00:07.475Z,95.30
2024-01-28T06:03:11.967Z,95.31
2024-01-28T06:06:15.220Z,95.36
2024-01-28T06:09:19.533Z,95.36
2024-01-28T06:12:22.529Z,95.35
2024-01-28T06:15:25.640Z,95.31
2024-01-28T06:18:28.693Z,95.25
2024-01-28T06:21:31.625Z,95.23
2024-01-28T06:24:36.707Z,95.23
2024-01-28T06:27:39.689Z,95.19
2024-01-28T06:30:42.738Z,95.07
2024-01-28T06:33:45.746Z,95.01
2024-01-28T06:36:49.195Z,95.12
2024-01-28T06:39:53.367Z,95.02
2024-01-28T06:42:56.327Z,94.87
2024-01-28T06:46:00.878Z,95.01
2024-01-28T06:49:05.175Z,95.07
2024-01-28T06:52:08.121Z,95.00
2024-01-28T06:55:11.548Z,94.96
2024-01-28T06:58:14.451Z,94.80
2024-01-28T07:01:18.137Z,94.68
2024-01-28T07:04:21.264Z,94.90
2024-01-28T07:07:24.399Z,94.85
2024-01-28T07:10:29.226Z,94.85
2024-01-28T07:13:32.353Z,94.64
2024-01-28T07:16:36.617Z,94.45
2024-01-28T07:19:42.007Z,94.36
2024-01-28T07:22:45.277Z,94.35
2024-01-28T07:25:49.738Z,94.46
2024-01-28T07:28:52.752Z,94.44
2024-01-28T07:31:55.804Z,94.28
2024-01-28T07:34:58.875Z,94.38
2024-01-28T07:38:01.779Z,93.97
2024-01-28T07:41:05.090Z,93.97
2024-01-28T07:44:08.269Z,93.89
2024-01-28T07:47:11.150Z,94.15
2024-01-28T07:50:14.286Z,94.15
2024-01-28T07:53:17.312Z,94.15
2024-01-28T07:56:20.136Z,94.51
2024-01-28T07:59:23.480Z,94.63
2024-01-28T08:02:26.334Z,94.53
2024-01-28T08:05:29.162Z,94.73
2024-01-28T08:08:34.132Z,94.87
2024-01-28T08:11:38.039Z,94.91
2024-01-28T08:14:40.941Z,94.77
2024-01-28T08:17:45.582Z,94.92
2024-01-28T08:20:48.612Z,95.08
2024-01-28T08:23:51.499Z,95.06
2024-01-28T08:26:54.617Z,95.08
2024-01-28T08:29:58.148Z,95.11
2024-01-28T08:33:01.079Z,95.04
2024-01-28T08:36:04.204Z,94.83
2024-01-28T08:39:07.160Z,95.07
2024-01-28T08:42:10.252Z,95.02
2024-01-28T08:45:13.304Z,94.93
2024-01-28T08:48:16.420Z,95.28
2024-01-28T08:51:19.493Z,94.79
2024-01-28T08:54:22.408Z,95.20
2024-01-28T08:57:25.688Z,94.72
2024-01-28T09:00:28.843Z,94.42
2024-01-28T09:03:32.744Z,94.29
2024-01-28T09:06:37.217Z,93.91
2024-01-28T09:09:40.680Z,94.11
2024-01-28T09:12:43.665Z,93.63
2024-01-28T09:15:46.584Z,93.68
2024-01-28T09:18:49.445Z,93.49
2024-01-28T09:21:52.792Z,93.72
2024-01-28T09:24:55.869Z,93.77
2024-01-28T09:27:58.750Z,93.52
2024-01-28T09:31:01.721Z,92.97
2024-01-28T09:34:05.633Z,93.29
2024-01-28T09:37:09.223Z,93.42
2024-01-28T09:40:13.205Z,93.58
2024-01-28T09:43:31.436Z,93.03
2024-01-28T09:46:36.929Z,92.83
2024-01-28T09:49:41.345Z,92.88
2024-01-28T09:52:44.385Z,92.75
2024-01-28T09:55:47.344Z,92.58
2024-01-28T09:58:50.805Z,92.49
2024-01-28T10:01:54.374Z,92.24
2024-01-28T10:04:57.826Z,92.66
2024-01-28T10:08:03.477Z,92.67
2024-01-28T10:11:06.510Z,92.21
2024-01-28T10:14:11.621Z,91.95
2024-01-28T10:17:14.845Z,91.47
2024-01-28T10:20:19.603Z,91.30
2024-01-28T10:23:22.562Z,90.77
2024-01-28T10:26:25.395Z,90.78
2024-01-28T10:29:29.330Z,90.62
2024-01-28T10:32:32.254Z,90.47
2024-01-28T10:35:35.171Z,90.30
2024-01-28T10:38:44.103Z,90.31
2024-01-28T10:41:55.502Z,90.07
2024-01-28T10:45:00.897Z,90.16
2024-01-28T10:48:08.822Z,90.12
2024-01-28T10:51:15.134Z,90.20
2024-01-28T10:54:18.311Z,89.73
2024-01-28T10:57:22.524Z,89.50
2024-01-28T11:00:27.709Z,90.06
2024-01-28T11:03:31.096Z,89.66
2024-01-28T11:06:34.490Z,89.26
2024-01-28T11:09:38.549Z,90.65
2024-01-28T11:12:41.947Z,89.85
2024-01-28T11:15:46.732Z,89.37
2024-01-28T11:19:05.496Z,89.24
2024-01-28T11:22:15.502Z,89.40
2024-01-28T11:25:26.516Z,89.27
2024-01-28T11:28:30.689Z,89.04
2024-01-28T11:31:35.581Z,88.85
2024-01-28T11:34:38.665Z,88.63
2024-01-28T11:37:59.587Z,88.48
2024-01-28T11:41:03.531Z,88.26
2024-01-28T11:44:08.922Z,88.45
2024-01-28T11:47:14.404Z,88.25
2024-01-28T11:50:17.832Z,88.42
2024-01-28T11:53:20.744Z,88.22
2024-01-28T11:56:23.729Z,88.37
2024-01-28T11:59:26.567Z,88.33
2024-01-28T12:02:29.453Z,88.11
2024-01-28T12:05:32.402Z,88.29
2024-01-28T12:08:40.541Z,88.13
2024-01-28T12:11:43.957Z,88.02
2024-01-28T12:14:46.896Z,88.00
2024-01-28T12:17:52.471Z,87.92
2024-01-28T12:20:55.411Z,87.79
2024-01-28T12:24:05.181Z,87.70
2024-01-28T12:27:08.314Z,87.64
2024-01-28T12:30:11.707Z,87.79
2024-01-28T12:33:14.779Z,87.73
2024-01-28T12:36:18.453Z,87.33
2024-01-28T12:39:21.588Z,87.42
2024-01-28T12:42:24.545Z,87.23
2024-01-28T12:45:27.707Z,86.95
2024-01-28T12:48:30.907Z,86.62
2024-01-28T12:51:33.995Z,86.62
2024-01-28T12:54:37.018Z,86.39
2024-01-28T12:57:40.611Z,86.24
2024-01-28T13:00:44.311Z,86.32
2024-01-28T13:03:47.765Z,86.10
2024-01-28T13:06:50.771Z,86.26
2024-01-28T13:09:53.837Z,86.14
2024-01-28T13:12:57.223Z,86.07
2024-01-28T13:16:01.351Z,85.95
2024-01-28T13:19:04.506Z,85.95
2024-01-28T13:22:07.502Z,85.62
2024-01-28T13:25:11.571Z,87.20
2024-01-28T13:28:14.562Z,86.63
2024-01-28T13:31:18.108Z,86.09
2024-01-28T13:34:21.321Z,86.39
2024-01-28T13:37:24.307Z,85.80
2024-01-28T13:40:27.146Z,84.95
2024-01-28T13:43:35.612Z,84.88
2024-01-28T13:46:38.700Z,84.91
2024-01-28T13:49:41.674Z,84.81
2024-01-28T13:52:44.569Z,84.51
2024-01-28T13:55:47.645Z,84.47
2024-01-28T13:58:50.622Z,84.58
2024-01-28T14:01:53.433Z,84.55
2024-01-28T14:04:56.315Z,84.07
2024-01-28T14:07:59.295Z,83.82
2024-01-28T14:11:02.300Z,84.10
2024-01-28T14:14:05.098Z,84.31
2024-01-28T14:17:10.246Z,84.51
2024-01-28T14:20:13.233Z,83.99
2024-01-28T14:23:16.129Z,84.19
2024-01-28T14:26:19.229Z,84.02
2024-01-28T14:29:23.295Z,84.08
2024-01-28T14:32:27.650Z,83.91
2024-01-28T14:35:30.499Z,83.90
2024-01-28T14:38:34.430Z,83.72
2024-01-28T14:41:37.265Z,84.04
2024-01-28T14:44:40.054Z,84.18
2024-01-28T14:47:43.977Z,84.33
2024-01-28T14:50:46.850Z,84.52
2024-01-28T14:53:49.732Z,84.49
2024-01-28T14:56:52.612Z,84.71
2024-01-28T14:59:56.374Z,84.64
2024-01-28T15:03:00.123Z,84.65
2024-01-28T15:06:03.305Z,84.50
2024-01-28T15:09:07.663Z,84.46
2024-01-28T15:12:10.472Z,84.65
2024-01-28T15:15:15.656Z,84.98
2024-01-28T15:18:18.984Z,84.82
2024-01-28T15:21:25.699Z,85.06
2024-01-28T15:24:28.610Z,85.28
2024-01-28T15:27:31.459Z,85.32
2024-01-28T15:30:34.520Z,85.06
2024-01-28T15:33:37.583Z,85.12
2024-01-28T15:36:40.992Z,85.12
2024-01-28T15:39:43.973Z,84.88
2024-01-28T15:42:48.371Z,85.11
2024-01-28T15:45:51.819Z,85.18
2024-01-28T15:48:56.417Z,85.24
2024-01-28T15:51:59.493Z,85.20
2024-01-28T15:55:02.436Z,85.28
2024-01-28T15:58:05.521Z,85.00
2024-01-28T16:01:09.157Z,84.93
2024-01-28T16:04:12.169Z,84.90
2024-01-28T16:07:15.329Z,84.67
2024-01-28T16:10:18.383Z,84.91
2024-01-28T16:13:21.296Z,84.82
2024-01-28T16:16:24.399Z,85.22
2024-01-28T16:19:28.375Z,85.39
2024-01-28T16:22:31.358Z,85.12
2024-01-28T16:25:34.638Z,85.15
2024-01-28T16:28:37.615Z,84.93
2024-01-28T16:31:40.673Z,84.97
2024-01-28T16:34:43.723Z,84.82
2024-01-28T16:37:51.362Z,84.91
2024-01-28T16:40:54.245Z,85.05
2024-01-28T16:43:57.192Z,85.01
2024-01-28T16:47:00.372Z,85.27
2024-01-28T16:50:05.199Z,85.16
2024-01-28T16:53:08.161Z,85.13
2024-01-28T16:56:11.805Z,85.09
2024-01-28T16:59:15.044Z,85.07
2024-01-28T17:02:18.056Z,84.91
2024-01-28T17:05:21.043Z,85.16
2024-01-28T17:08:25.180Z,85.04
2024-01-28T17:11:27.988Z,85.06
2024-01-28T17:14:31.047Z,84.83
2024-01-28T17:17:34.085Z,85.21
2024-01-28T17:20:37.353Z,85.07
2024-01-28T17:23:40.936Z,85.10
2024-01-28T17:26:45.790Z,85.09
2024-01-28T17:29:49.326Z,85.04
2024-01-28T17:32:52.262Z,84.81
2024-01-28T17:35:55.360Z,84.60
2024-01-28T17:38:58.265Z,84.85
2024-01-28T17:42:01.217Z,85.18
2024-01-28T17:45:05.734Z,85.23
2024-01-28T17:48:08.703Z,85.11
2024-01-28T17:51:11.681Z,85.14
2024-01-28T17:54:15.948Z,84.87
2024-01-28T17:57:19.943Z,85.41
2024-01-28T18:00:22.954Z,85.14
2024-01-28T18:03:26.003Z,85.07
2024-01-28T18:06:29.028Z,85.35
2024-01-28T18:09:32.111Z,85.14
2024-01-28T18:12:35.182Z,85.15
2024-01-28T18:15:38.446Z,84.82
2024-01-28T18:18:42.449Z,84.90
2024-01-28T18:21:45.570Z,84.70
2024-01-28T18:24:49.929Z,84.77
2024-01-28T18:27:54.348Z,84.85
2024-01-28T18:30:57.272Z,84.84
2024-01-28T18:34:02.213Z,84.65
2024-01-28T18:37:05.418Z,84.69
2024-01-28T18:40:11.084Z,84.64
2024-01-28T18:43:14.019Z,84.67
2024-01-28T18:46:17.987Z,84.68
2024-01-28T18:49:22.774Z,84.68
2024-01-28T18:52:25.789Z,84.74
2024-01-28T18:55:28.931Z,84.69
2024-01-28T18:58:31.816Z,84.66
2024-01-28T19:01:34.843Z,84.64
2024-01-28T19:04:37.953Z,84.55
2024-01-28T19:07:41.026Z,84.63
2024-01-28T19:10:45.169Z,84.73
2024-01-28T19:13:49.311Z,84.71
2024-01-28T19:16:52.170Z,84.64
2024-01-28T19:19:55.133Z,84.37
2024-01-28T19:22:57.967Z,84.66
2024-01-28T19:26:00.933Z,84.89
2024-01-28T19:29:04.241Z,84.69
2024-01-28T19:32:07.615Z,84.43
2024-01-28T19:35:10.637Z,84.57
2024-01-28T19:38:13.512Z,84.60
2024-01-28T19:41:16.437Z,84.48
2024-01-28T19:44:19.774Z,84.49
2024-01-28T19:47:22.757Z,84.47
2024-01-28T19:50:25.570Z,84.59
2024-01-28T19:53:28.718Z,84.27
2024-01-28T19:56:31.542Z,84.44
2024-01-28T19:59:34.562Z,84.40
2024-01-28T20:02:37.772Z,84.25
2024-01-28T20:05:42.105Z,84.31
2024-01-28T20:08:46.207Z,84.20
2024-01-28T20:11:49.187Z,84.20
2024-01-28T20:14:52.444Z,84.39
2024-01-28T20:17:55.356Z,84.20
2024-01-28T20:20:59.348Z,84.19
2024-01-28T20:24:02.249Z,84.18
2024-01-28T20:27:05.422Z,84.28
2024-01-28T20:30:09.381Z,84.20
2024-01-28T20:33:12.407Z,84.25
2024-01-28T20:36:15.511Z,84.27
2024-01-28T20:39:18.418Z,84.33
2024-01-28T20:42:21.334Z,84.24
2024-01-28T20:45:24.376Z,84.23
2024-01-28T20:48:27.382Z,84.47
2024-01-28T20:51:30.444Z,84.54
2024-01-28T20:54:33.756Z,84.91
2024-01-28T20:57:37.057Z,84.81
2024-01-28T21:00:40.500Z,84.70
2024-01-28T21:03:43.358Z,84.53
2024-01-28T21:06:46.487Z,84.47
2024-01-28T21:09:50.039Z,84.38
2024-01-28T21:12:53.162Z,84.40
2024-01-28T21:15:56.110Z,84.41
2024-01-28T21:18:59.067Z,84.56
2024-01-28T21:22:02.128Z,84.60
2024-01-28T21:25:05.689Z,84.30
2024-01-28T21:28:08.703Z,84.18
2024-01-28T21:31:11.664Z,83.98
2024-01-28T21:34:14.954Z,84.33
2024-01-28T21:37:17.981Z,84.39
2024-01-28T21:40:20.795Z,84.28
2024-01-28T21:43:23.691Z,84.56
2024-01-28T21:46:26.574Z,84.40
2024-01-28T21:49:29.521Z,84.51
2024-01-28T21:52:32.357Z,84.35
2024-01-28T21:55:38.267Z,84.30
2024-01-28T21:58:41.553Z,84.20
2024-01-28T22:01:44.881Z,84.32
2024-01-28T22:04:47.837Z,84.36
2024-01-28T22:07:50.870Z,84.48
2024-01-28T22:10:53.881Z,84.66
2024-01-28T22:13:56.735Z,84.77
2024-01-28T22:16:59.598Z,85.10
2024-01-28T22:20:04.086Z,85.31
2024-01-28T22:23:07.070Z,85.40
2024-01-28T22:26:10.044Z,85.35
2024-01-28T22:29:13.550Z,85.43
2024-01-28T22:32:16.793Z,85.71
2024-01-28T22:35:19.971Z,85.85
2024-01-28T22:38:22.931Z,85.81
2024-01-28T22:41:25.832Z,85.68
2024-01-28T22:44:28.661Z,85.79
2024-01-28T22:47:31.640Z,85.78
2024-01-28T22:50:41.417Z,85.85
2024-01-28T22:53:44.714Z,85.86
2024-01-28T22:56:47.599Z,85.90
2024-01-28T22:59:50.456Z,85.78
2024-01-28T23:02:54.289Z,85.45
2024-01-28T23:05:58.849Z,85.33
2024-01-28T23:09:02.287Z,85.48
2024-01-28T23:12:06.412Z,85.56
2024-01-28T23:15:15.268Z,85.45
2024-01-28T23:18:24.745Z,85.32
2024-01-28T23:21:27.740Z,85.20
2024-01-28T23:24:30.764Z,85.27
2024-01-28T23:27:33.699Z,85.30
2024-01-28T23:30:38.184Z,85.30
2024-01-28T23:33:41.234Z,85.17
2024-01-28T23:36:44.537Z,85.08
2024-01-28T23:39:47.470Z,85.23
2024-01-28T23:42:50.931Z,85.23
2024-01-28T23:45:53.921Z,85.35
2024-01-28T23:48:56.928Z,85.42
2024-01-28T23:52:00.675Z,85.30
2024-01-28T23:55:04.682Z,85.18
2024-01-28T23:58:07.746Z,85.17
